Tolono, IL (61880)

11:40 AM CDT on September 23, 2014 (GMT -0500)
KILCHAMP15 | Change Station
CLOSE
Current Station
Personal Weather Station
Location: Champaign, IL
Elevation: 728 ft
Nearby Weather Stations

Elev 728 ft 40.03 °N, 88.30 °W | Updated 21 seconds ago

Clear
Clear
69.2 °F
Feels Like 69.2 °F
N
4.0
Wind Variable Wind from South
Gusts 0.0 mph

Today
High -- | Low -- °F
--% Chance of Precip.
Yesterday
High -- | Low -- °F
Precip. -- in
6:41 AM 6:48 PM
Waning Crescent, 0% visible
Pressure 30.37 in
Visibility 10.0 miles
Clouds Clear
Dew Point 51 °F
Humidity 53%
Rainfall 0.00 in
Snow Depth Not available.
UV 6 out of 12
Pollen 4.50 out of 12
Air Quality Not available.
Flu Activity Not available.
METAR KCMI 231553Z VRB05KT 10SM CLR 19/08 A3036 RMK AO2 SLP282 T01940083

More Conditions Fewer Conditions

Pressure 30.37 in
Visibility 10.0 miles
Clouds Clear
Dew Point 51 °F
Humidity 53%
Rainfall 0.00 in
Snow Depth Not available.
UV 6 out of 12
Pollen 4.50 out of 12
Air Quality Not available.
Flu Activity Not available.
METAR KCMI 231553Z VRB05KT 10SM CLR 19/08 A3036 RMK AO2 SLP282 T01940083

More Conditions Fewer Conditions

10-Day Weather Forecast

Almanac

Astronomy

Sep. 23, 2014 Rise Set
Actual Time 6:41 AM CDT 6:48 PM CDT
Civil Twilight 6:14 AM CDT 7:15 PM CDT
Nautical Twilight 5:42 AM CDT 7:46 PM CDT
Astronomical Twilight 5:10 AM CDT 8:19 PM CDT
Moon 6:05 AM CDT 6:27 PM CDT
Length of Visible Light 13h 00m
Length of Day
12h 06m
Tomorrow will be 2m 37s shorter.
Waning Crescent, 0% of the Moon is Illuminated
Today
Waning Crescent
Sep 24
New
Oct 1
First Quarter
Oct 8
Full
Oct 15
Last Quarter

Today's Extremes

State Highs State Lows

Community

WunderPhotos

Upload Photos

1,755,750 photos uploaded!

WunderBlogs® & News

By Dr. Jeff Masters
Director of Meteorology, Weather Underground
By Kari Strenfel
Meteorologist, Weather Underground
By Christopher C. Burt
Weather Historian, Weather Underground
September 23, 2014
September 23, 2014
September 23, 2014

Nearby

Snow Depth

Station Depth Elevation
No new snow has been reported.

Earthquake Activity

City Distance Mag. Time & Date
No recent earthquake activity has been reported nearby.
Minimum magnitude displayed is 2.5.

Coastal Water Temperatures

Place Temperature
No Stations Reporting

Nearby Weather Stations